Time;durP1;ratioP1;P1;durP2;ratioP2;P2;SDS_P1;SDS_P2;PMS_P1;PMS_P2;Temp;Humidity;BMP_temperature;BMP_pressure;BME280_temperature;BME280_humidity;BME280_pressure;Samples;Min_cycle;Max_cycle;Signal;HPM_P1;HPM_P2
2021/08/30 00:01:24;;;;;;;17.55;12.73;;;18.00;99.90;;;;;;5069838;28;20199;-77
2021/08/30 00:03:54;;;;;;;22.40;12.45;;;18.00;99.90;;;;;;5072575;28;20702;-77
2021/08/30 00:06:21;;;;;;;18.15;13.18;;;18.00;99.90;;;;;;5067958;28;20253;-77
2021/08/30 00:08:50;;;;;;;21.25;12.70;;;18.00;99.90;;;;;;5067718;28;20231;-76
2021/08/30 00:11:17;;;;;;;22.77;13.52;;;18.10;99.90;;;;;;5067667;28;20200;-77
2021/08/30 00:13:44;;;;;;;20.80;12.60;;;18.20;99.90;;;;;;5067678;28;20213;-77
2021/08/30 00:16:12;;;;;;;24.17;14.32;;;18.10;99.90;;;;;;5067954;28;20196;-77
2021/08/30 00:18:40;;;;;;;19.50;14.60;;;18.00;99.90;;;;;;5067928;28;20250;-77
2021/08/30 00:21:07;;;;;;;22.60;13.20;;;18.10;99.90;;;;;;5067566;28;20222;-77
2021/08/30 00:23:34;;;;;;;21.67;12.65;;;18.10;99.90;;;;;;5067938;28;20226;-77
2021/08/30 00:26:04;;;;;;;22.75;15.05;;;18.10;99.90;;;;;;5077085;28;20233;-77
2021/08/30 00:28:32;;;;;;;25.60;14.23;;;18.00;99.90;;;;;;5070455;28;20218;-76
2021/08/30 00:30:59;;;;;;;21.92;14.00;;;18.00;99.90;;;;;;5077731;28;20231;-77
2021/08/30 00:33:26;;;;;;;25.73;14.70;;;18.00;99.90;;;;;;5066773;28;20233;-77
2021/08/30 00:35:53;;;;;;;18.95;13.98;;;18.00;99.90;;;;;;5074136;28;20230;-77
2021/08/30 00:38:20;;;;;;;18.55;14.27;;;18.00;99.90;;;;;;5067489;28;20204;-76
2021/08/30 00:40:47;;;;;;;24.77;15.32;;;18.00;99.90;;;;;;5075481;28;20197;-76
2021/08/30 00:43:16;;;;;;;21.67;14.65;;;18.00;99.90;;;;;;5069138;28;20736;-77
2021/08/30 00:45:43;;;;;;;20.35;14.57;;;18.00;99.90;;;;;;5066375;28;20211;-77
2021/08/30 00:48:10;;;;;;;24.88;16.00;;;18.00;99.90;;;;;;5074145;28;20297;-77
2021/08/30 00:50:37;;;;;;;27.67;15.60;;;18.00;99.90;;;;;;5071701;28;20208;-77
2021/08/30 00:53:05;;;;;;;27.38;15.93;;;18.10;99.90;;;;;;5067228;28;20237;-77
2021/08/30 00:55:33;;;;;;;27.40;15.02;;;18.00;99.90;;;;;;5069853;28;20197;-77
2021/08/30 00:58:00;;;;;;;29.25;16.17;;;18.00;99.90;;;;;;5066868;28;20202;-77
2021/08/30 01:00:33;;;;;;;25.83;16.20;;;18.00;99.90;;;;;;5077956;28;20204;-77
2021/08/30 01:02:59;;;;;;;25.70;14.38;;;18.10;99.90;;;;;;5072846;28;20602;-77
2021/08/30 01:05:27;;;;;;;24.27;15.63;;;18.20;99.90;;;;;;5069803;28;20207;-77
2021/08/30 01:08:04;;;;;;;22.60;14.65;;;18.10;99.90;;;;;;5066630;28;20220;-77
2021/08/30 01:10:44;;;;;;;26.95;15.30;;;18.00;99.90;;;;;;5066815;28;20202;-77
2021/08/30 01:13:14;;;;;;;23.85;14.45;;;18.00;99.90;;;;;;5067150;28;20207;-77
2021/08/30 01:15:44;;;;;;;24.77;15.35;;;18.00;99.90;;;;;;5067651;28;20233;-77
2021/08/30 01:18:17;;;;;;;25.70;15.00;;;18.10;99.90;;;;;;5071801;28;20728;-77
2021/08/30 01:20:56;;;;;;;23.65;14.88;;;18.10;99.90;;;;;;5067615;28;20215;-76
2021/08/30 01:26:09;;;;;;;26.13;14.75;;;18.20;99.90;;;;;;5070930;28;20213;-77
2021/08/30 01:28:40;;;;;;;27.05;16.23;;;18.20;99.90;;;;;;5066208;28;20231;-77
2021/08/30 01:31:15;;;;;;;29.60;15.93;;;18.20;99.90;;;;;;5067390;28;20206;-77
2021/08/30 01:33:44;;;;;;;32.05;14.73;;;18.20;99.90;;;;;;5070721;28;20207;-78
2021/08/30 01:36:12;;;;;;;25.13;15.52;;;18.20;99.90;;;;;;5071043;28;20203;-77
2021/08/30 01:38:45;;;;;;;24.42;14.75;;;18.20;99.90;;;;;;5069619;28;20215;-77
2021/08/30 01:41:15;;;;;;;27.30;15.90;;;18.10;99.90;;;;;;5076855;28;20555;-76
2021/08/30 01:43:44;;;;;;;25.63;16.38;;;17.90;99.90;;;;;;5067100;28;20211;-77
2021/08/30 01:46:11;;;;;;;23.25;16.85;;;17.70;99.90;;;;;;5065856;28;20669;-77
2021/08/30 01:48:39;;;;;;;25.38;16.02;;;17.70;99.90;;;;;;5066859;28;20288;-77
2021/08/30 01:51:08;;;;;;;26.30;16.90;;;17.70;99.90;;;;;;5066110;28;20195;-77
2021/08/30 01:53:35;;;;;;;26.88;16.90;;;17.70;99.90;;;;;;5070648;28;20233;-77
2021/08/30 01:56:05;;;;;;;37.47;17.27;;;17.70;99.90;;;;;;5066221;28;20210;-76
2021/08/30 02:01:18;;;;;;;28.35;16.63;;;17.70;99.90;;;;;;5066679;28;20687;-77
2021/08/30 02:03:47;;;;;;;29.27;18.20;;;17.70;99.90;;;;;;5066494;28;20233;-77
2021/08/30 02:06:19;;;;;;;25.92;16.63;;;17.70;99.90;;;;;;5067133;28;20218;-77
2021/08/30 02:08:46;;;;;;;26.02;16.38;;;17.60;99.90;;;;;;5067400;28;20261;-77
2021/08/30 02:11:15;;;;;;;28.90;18.20;;;17.60;99.90;;;;;;5067151;28;20324;-77
2021/08/30 02:13:43;;;;;;;29.30;16.65;;;17.50;99.90;;;;;;5066691;28;20199;-77
2021/08/30 02:16:10;;;;;;;25.80;17.65;;;17.60;99.90;;;;;;5067414;28;20205;-78
2021/08/30 02:18:41;;;;;;;23.35;16.48;;;17.50;99.90;;;;;;5067222;28;20264;-77
2021/08/30 02:21:14;;;;;;;24.92;16.98;;;17.50;99.90;;;;;;5072588;28;20245;-77
2021/08/30 02:26:41;;;;;;;30.73;15.98;;;17.50;99.90;;;;;;5073249;28;20202;-77
2021/08/30 02:29:10;;;;;;;32.40;17.02;;;17.60;99.90;;;;;;5067085;28;20284;-77
2021/08/30 02:31:40;;;;;;;25.75;16.10;;;17.60;99.90;;;;;;5067423;28;20211;-78
2021/08/30 02:34:09;;;;;;;23.50;15.55;;;17.60;99.90;;;;;;5067281;28;20199;-77
2021/08/30 02:36:37;;;;;;;24.95;16.95;;;17.70;99.90;;;;;;5067177;28;20318;-77
2021/08/30 02:39:06;;;;;;;29.50;16.52;;;17.70;99.90;;;;;;5067855;28;20658;-78
2021/08/30 02:44:17;;;;;;;23.88;16.67;;;17.70;99.90;;;;;;5066492;28;20213;-78
2021/08/30 02:46:45;;;;;;;28.88;17.95;;;17.70;99.90;;;;;;5076974;28;20741;-77
2021/08/30 02:49:13;;;;;;;22.73;15.68;;;17.60;99.90;;;;;;5074560;28;20315;-78
2021/08/30 02:51:42;;;;;;;23.15;15.88;;;17.70;99.90;;;;;;5078142;28;20207;-77
2021/08/30 02:54:12;;;;;;;28.40;17.70;;;17.70;99.90;;;;;;5069807;28;20230;-77
2021/08/30 02:56:47;;;;;;;25.25;15.82;;;17.70;99.90;;;;;;5070650;28;20207;-77
2021/08/30 02:59:15;;;;;;;26.15;16.25;;;17.60;99.90;;;;;;5071097;28;20199;-78
2021/08/30 03:01:44;;;;;;;26.00;15.32;;;17.70;99.90;;;;;;5070836;28;20246;-78
2021/08/30 03:04:12;;;;;;;24.05;16.10;;;17.70;99.90;;;;;;5069916;28;20284;-77
2021/08/30 03:06:40;;;;;;;24.65;16.70;;;17.70;99.90;;;;;;5074243;28;20233;-77
2021/08/30 03:09:07;;;;;;;27.27;17.25;;;17.70;99.90;;;;;;5070736;28;20248;-78
2021/08/30 03:11:39;;;;;;;26.90;16.73;;;17.60;99.90;;;;;;5069588;28;20256;-78
2021/08/30 03:14:09;;;;;;;31.85;16.08;;;17.60;99.90;;;;;;5070306;28;20257;-78
2021/08/30 03:16:37;;;;;;;27.55;17.15;;;17.70;99.90;;;;;;5074698;28;20262;-77
2021/08/30 03:19:06;;;;;;;26.52;15.93;;;17.70;99.90;;;;;;5081721;28;20263;-77
2021/08/30 03:21:33;;;;;;;24.70;16.05;;;17.70;99.90;;;;;;5070128;28;20221;-77
2021/08/30 03:24:04;;;;;;;28.77;16.88;;;17.70;99.90;;;;;;5074299;28;20241;-78
2021/08/30 03:26:32;;;;;;;28.80;16.77;;;17.70;99.90;;;;;;5071928;28;20199;-78
2021/08/30 03:29:01;;;;;;;32.30;16.52;;;17.60;99.90;;;;;;5070769;28;20228;-78
2021/08/30 03:31:33;;;;;;;24.80;16.10;;;17.70;99.90;;;;;;5075107;28;20689;-78
2021/08/30 03:34:01;;;;;;;27.63;16.80;;;17.60;99.90;;;;;;5075532;28;20307;-78
2021/08/30 03:36:29;;;;;;;27.48;16.42;;;17.70;99.90;;;;;;5076242;28;20199;-78
2021/08/30 03:39:05;;;;;;;28.05;16.90;;;17.70;99.90;;;;;;5076261;28;20710;-77
2021/08/30 03:41:34;;;;;;;24.05;15.60;;;17.70;99.90;;;;;;5068924;28;20294;-77
2021/08/30 03:44:05;;;;;;;28.20;17.15;;;17.70;99.90;;;;;;5072359;28;20257;-77
2021/08/30 03:46:33;;;;;;;23.63;15.65;;;17.70;99.90;;;;;;5076975;28;20207;-77
2021/08/30 03:49:00;;;;;;;26.55;17.02;;;17.70;99.90;;;;;;5067789;28;20253;-77
2021/08/30 03:51:28;;;;;;;26.45;16.33;;;17.70;99.90;;;;;;5068799;28;20256;-77
2021/08/30 03:53:57;;;;;;;22.92;16.38;;;17.70;99.90;;;;;;5068957;28;20233;-77
2021/08/30 03:56:25;;;;;;;31.38;17.13;;;17.70;99.90;;;;;;5067782;28;20226;-77
2021/08/30 03:58:54;;;;;;;29.33;17.85;;;17.70;99.90;;;;;;5067461;28;20207;-77
2021/08/30 04:01:25;;;;;;;28.65;16.08;;;17.60;99.90;;;;;;5069302;28;20206;-77
2021/08/30 04:03:55;;;;;;;28.83;18.05;;;17.60;99.90;;;;;;5076285;28;20298;-77
2021/08/30 04:06:29;;;;;;;24.02;16.30;;;17.60;99.90;;;;;;5072802;28;20204;-77
2021/08/30 04:08:57;;;;;;;24.17;16.20;;;17.60;99.90;;;;;;5074438;28;20256;-77
2021/08/30 04:11:24;;;;;;;26.30;17.00;;;17.70;99.90;;;;;;5078435;28;20260;-77
2021/08/30 04:13:53;;;;;;;28.02;17.15;;;17.70;99.90;;;;;;5077016;28;20205;-77
2021/08/30 04:16:22;;;;;;;27.38;16.65;;;17.70;99.90;;;;;;5067605;28;20199;-77
2021/08/30 04:18:50;;;;;;;28.30;17.95;;;17.70;99.90;;;;;;5074848;28;20203;-77
2021/08/30 04:21:17;;;;;;;26.88;16.15;;;17.70;99.90;;;;;;5069369;28;20707;-77
2021/08/30 04:23:44;;;;;;;25.55;15.23;;;17.70;99.90;;;;;;5073947;28;20202;-77
2021/08/30 04:31:49;;;;;;;28.38;16.80;;;17.70;99.90;;;;;;5075193;28;21201;-77
2021/08/30 04:36:57;;;;;;;24.90;18.65;;;17.70;99.90;;;;;;5068879;28;20214;-78
2021/08/30 04:39:24;;;;;;;26.02;18.60;;;17.60;99.90;;;;;;5061790;28;20233;-77
2021/08/30 04:41:50;;;;;;;28.95;18.20;;;17.60;99.90;;;;;;5075380;28;20271;-77
2021/08/30 04:44:21;;;;;;;30.50;18.42;;;17.70;99.90;;;;;;5070758;28;20199;-78
2021/08/30 04:46:50;;;;;;;34.88;18.30;;;17.70;99.90;;;;;;5076241;28;20267;-77
2021/08/30 04:49:20;;;;;;;29.63;19.10;;;17.70;99.90;;;;;;5077882;28;20455;-77
2021/08/30 04:51:48;;;;;;;28.05;19.52;;;17.70;99.90;;;;;;5072573;28;20739;-78
2021/08/30 04:54:19;;;;;;;24.42;18.25;;;17.70;99.90;;;;;;5077843;28;20275;-78
2021/08/30 04:56:46;;;;;;;30.77;17.38;;;17.70;99.90;;;;;;5068995;28;20207;-78
2021/08/30 04:59:13;;;;;;;22.92;16.80;;;17.70;99.90;;;;;;5067859;28;20245;-77
2021/08/30 05:01:41;;;;;;;29.92;19.30;;;17.70;99.90;;;;;;5067354;28;20194;-77
2021/08/30 05:04:09;;;;;;;36.15;19.05;;;17.60;99.90;;;;;;5072150;28;20243;-77
2021/08/30 05:06:36;;;;;;;32.03;18.15;;;17.60;99.90;;;;;;5067233;28;20205;-77
2021/08/30 05:09:03;;;;;;;28.40;18.15;;;17.60;99.90;;;;;;5070451;28;20283;-77
2021/08/30 05:11:30;;;;;;;34.13;17.95;;;17.60;99.90;;;;;;5069430;28;20211;-77
2021/08/30 05:13:59;;;;;;;30.02;17.15;;;17.60;99.90;;;;;;5066101;28;20261;-77
2021/08/30 05:16:26;;;;;;;26.98;16.80;;;17.70;99.90;;;;;;5067249;28;20234;-76
2021/08/30 05:18:53;;;;;;;30.80;18.20;;;17.60;99.90;;;;;;5067362;28;20205;-77
2021/08/30 05:21:21;;;;;;;28.30;18.15;;;17.60;99.90;;;;;;5067493;28;20229;-77
2021/08/30 05:23:48;;;;;;;27.38;17.63;;;17.60;99.90;;;;;;5066599;28;20203;-77
2021/08/30 05:26:16;;;;;;;28.85;17.85;;;17.60;99.90;;;;;;5073386;28;20201;-77
2021/08/30 05:28:43;;;;;;;29.33;18.40;;;17.50;99.90;;;;;;5067433;28;20230;-77
2021/08/30 05:31:14;;;;;;;29.33;18.30;;;17.50;99.90;;;;;;5070817;28;20202;-77
2021/08/30 05:33:41;;;;;;;29.67;18.40;;;17.50;99.90;;;;;;5071926;28;20210;-78
2021/08/30 05:36:08;;;;;;;28.67;18.98;;;17.50;99.90;;;;;;5072076;28;20261;-78
2021/08/30 05:41:18;;;;;;;31.73;18.60;;;17.50;99.90;;;;;;5071734;28;20209;-77
2021/08/30 05:43:45;;;;;;;30.45;18.23;;;17.50;99.90;;;;;;5068558;28;20289;-78
2021/08/30 05:46:21;;;;;;;36.80;18.08;;;17.60;99.90;;;;;;5069133;28;20201;-78
2021/08/30 05:48:50;;;;;;;26.60;19.17;;;17.60;99.90;;;;;;5073555;28;20312;-78
2021/08/30 05:51:17;;;;;;;29.27;18.23;;;17.60;99.90;;;;;;5077316;28;20206;-78
2021/08/30 05:53:46;;;;;;;31.45;18.63;;;17.60;99.90;;;;;;5070763;28;20233;-78
2021/08/30 05:56:13;;;;;;;31.30;18.92;;;17.60;99.90;;;;;;5075386;28;20617;-78
2021/08/30 05:58:40;;;;;;;30.30;19.10;;;17.70;99.90;;;;;;5069054;28;20233;-78
2021/08/30 06:01:07;;;;;;;30.00;18.73;;;17.60;99.90;;;;;;5068241;28;20284;-78
2021/08/30 06:03:34;;;;;;;29.40;18.52;;;17.60;99.90;;;;;;5075116;28;20242;-77
2021/08/30 06:08:46;;;;;;;34.83;20.27;;;17.60;99.90;;;;;;5067211;28;20199;-78
2021/08/30 06:11:14;;;;;;;32.35;18.75;;;17.60;99.90;;;;;;5068544;28;20205;-78
2021/08/30 06:13:41;;;;;;;31.20;18.70;;;17.60;99.90;;;;;;5076203;28;20209;-77
2021/08/30 06:16:08;;;;;;;30.38;18.70;;;17.60;99.90;;;;;;5069227;28;20210;-77
2021/08/30 06:18:35;;;;;;;32.42;18.92;;;17.60;99.90;;;;;;5069896;28;20211;-78
2021/08/30 06:21:02;;;;;;;35.38;21.42;;;17.60;99.90;;;;;;5073616;28;20199;-77
2021/08/30 06:23:30;;;;;;;33.42;22.98;;;17.70;99.90;;;;;;5072759;28;20213;-77
2021/08/30 06:28:55;;;;;;;33.25;21.55;;;17.80;99.90;;;;;;5073823;28;20210;-78
2021/08/30 06:31:22;;;;;;;27.38;18.83;;;17.80;99.90;;;;;;5077165;28;20201;-77
2021/08/30 06:33:49;;;;;;;39.47;19.58;;;17.80;99.90;;;;;;5076698;28;20214;-78
2021/08/30 06:38:57;;;;;;;30.55;17.80;;;17.90;99.90;;;;;;5071972;28;20210;-77
2021/08/30 06:41:24;;;;;;;29.88;16.77;;;18.00;99.90;;;;;;5071491;28;20237;-77
2021/08/30 06:43:54;;;;;;;30.23;17.70;;;18.00;99.90;;;;;;5071321;28;20214;-77
2021/08/30 06:46:28;;;;;;;35.72;18.45;;;18.00;99.90;;;;;;5070082;28;20654;-76
2021/08/30 06:48:55;;;;;;;26.02;17.52;;;18.00;99.90;;;;;;5075439;28;20230;-76
2021/08/30 06:51:23;;;;;;;29.52;18.67;;;18.10;99.90;;;;;;5069585;28;20246;-76
2021/08/30 06:53:50;;;;;;;30.73;18.85;;;18.00;99.90;;;;;;5070029;28;20206;-76
2021/08/30 06:56:17;;;;;;;29.38;19.05;;;18.00;99.90;;;;;;5053984;28;20226;-78
2021/08/30 06:58:45;;;;;;;28.63;19.05;;;18.00;99.90;;;;;;5069671;28;20210;-76
2021/08/30 07:01:12;;;;;;;30.48;18.02;;;18.10;99.90;;;;;;5074084;28;20199;-77
2021/08/30 07:03:40;;;;;;;32.42;18.80;;;18.10;99.90;;;;;;5070584;28;20238;-76
2021/08/30 07:06:07;;;;;;;27.80;17.80;;;18.20;99.90;;;;;;5072040;28;20203;-76
2021/08/30 07:08:34;;;;;;;32.67;19.55;;;18.20;99.90;;;;;;5069420;28;20211;-76
2021/08/30 07:11:01;;;;;;;30.00;19.55;;;18.20;99.90;;;;;;5069058;28;20340;-76
2021/08/30 07:13:28;;;;;;;32.70;20.48;;;18.20;99.90;;;;;;5076078;28;20199;-77
2021/08/30 07:15:55;;;;;;;30.75;19.40;;;18.30;99.90;;;;;;5068759;28;20670;-76
2021/08/30 07:18:22;;;;;;;35.25;19.25;;;18.30;99.90;;;;;;5068600;28;20658;-77
2021/08/30 07:20:50;;;;;;;27.20;18.30;;;18.40;99.90;;;;;;5068641;28;20207;-74
2021/08/30 07:23:18;;;;;;;29.27;19.30;;;18.40;99.90;;;;;;5069349;28;20208;-73
2021/08/30 07:25:45;;;;;;;37.30;19.40;;;18.40;99.90;;;;;;5068342;28;20268;-74
2021/08/30 07:28:12;;;;;;;31.52;18.23;;;18.40;99.90;;;;;;5068594;28;20206;-74
2021/08/30 07:30:39;;;;;;;34.80;18.88;;;18.30;99.90;;;;;;5068885;28;20238;-76
2021/08/30 07:33:06;;;;;;;31.13;19.63;;;18.30;99.90;;;;;;5076974;28;20209;-77
2021/08/30 07:35:33;;;;;;;34.03;20.25;;;18.30;99.90;;;;;;5067268;28;20202;-75
2021/08/30 07:38:01;;;;;;;34.28;19.90;;;18.30;99.90;;;;;;5072351;28;20206;-73
2021/08/30 07:40:28;;;;;;;27.65;19.25;;;18.40;99.90;;;;;;5071268;28;20738;-74
2021/08/30 07:42:55;;;;;;;34.35;19.90;;;18.50;99.90;;;;;;5068147;28;20210;-75
2021/08/30 07:45:22;;;;;;;30.85;19.90;;;18.50;99.90;;;;;;5074984;28;20206;-75
2021/08/30 07:47:49;;;;;;;38.33;22.58;;;18.60;99.90;;;;;;5071305;28;20241;-75
2021/08/30 07:50:16;;;;;;;29.13;19.10;;;18.60;99.90;;;;;;5075517;28;20318;-75
2021/08/30 07:52:43;;;;;;;30.50;19.48;;;18.70;99.90;;;;;;5075857;28;20246;-75
2021/08/30 07:55:12;;;;;;;27.08;18.27;;;18.80;99.90;;;;;;5073614;28;20204;-75
2021/08/30 07:57:39;;;;;;;27.70;18.92;;;18.80;99.90;;;;;;5068484;28;20208;-75
2021/08/30 08:00:07;;;;;;;32.72;19.63;;;18.80;99.90;;;;;;5072046;28;20693;-75
2021/08/30 08:02:34;;;;;;;29.25;18.27;;;18.80;99.90;;;;;;5067364;28;20210;-75
2021/08/30 08:05:01;;;;;;;28.45;17.52;;;18.80;99.90;;;;;;5073212;28;20205;-75
2021/08/30 08:07:28;;;;;;;24.55;18.02;;;18.70;99.90;;;;;;5073482;28;20201;-75
2021/08/30 08:09:55;;;;;;;29.27;18.13;;;18.70;99.90;;;;;;5067629;28;20223;-75
2021/08/30 08:12:23;;;;;;;28.50;19.15;;;18.70;99.90;;;;;;5066954;28;20207;-74
2021/08/30 08:14:50;;;;;;;28.42;18.73;;;18.70;99.90;;;;;;5067716;28;20256;-77
2021/08/30 08:17:17;;;;;;;33.33;18.88;;;18.80;99.90;;;;;;5068741;28;20211;-77
2021/08/30 08:19:44;;;;;;;27.77;19.45;;;18.70;99.90;;;;;;5071555;28;20215;-77
2021/08/30 08:22:11;;;;;;;28.52;18.52;;;18.70;99.90;;;;;;5077351;28;20204;-77
2021/08/30 08:24:41;;;;;;;27.05;18.10;;;18.70;99.90;;;;;;5068143;28;20203;-77
2021/08/30 08:27:08;;;;;;;34.65;18.45;;;18.70;99.90;;;;;;5068126;28;20206;-77
2021/08/30 08:29:36;;;;;;;27.60;18.38;;;18.60;99.90;;;;;;5067260;28;20231;-77
2021/08/30 08:32:11;;;;;;;25.08;16.65;;;18.70;99.90;;;;;;5074297;28;20206;-77
2021/08/30 08:34:38;;;;;;;30.23;17.73;;;18.80;99.90;;;;;;5074388;28;20253;-75
2021/08/30 08:37:06;;;;;;;25.75;17.60;;;18.90;99.90;;;;;;5075634;28;20198;-75
2021/08/30 08:39:33;;;;;;;32.42;17.48;;;18.90;99.90;;;;;;5067703;28;20211;-75
2021/08/30 08:42:00;;;;;;;23.98;17.58;;;19.00;99.90;;;;;;5067163;28;20213;-76
2021/08/30 08:44:27;;;;;;;28.25;17.15;;;18.90;99.90;;;;;;5073047;28;20214;-76
2021/08/30 08:46:56;;;;;;;22.83;17.02;;;18.90;99.90;;;;;;5073404;28;20228;-78
2021/08/30 08:49:24;;;;;;;27.25;16.92;;;18.90;99.90;;;;;;5071922;28;20229;-79
2021/08/30 08:51:51;;;;;;;23.35;16.85;;;18.90;99.90;;;;;;5073640;28;20650;-74
2021/08/30 08:54:18;;;;;;;23.35;15.57;;;18.90;99.90;;;;;;5076206;28;20230;-75
2021/08/30 08:56:45;;;;;;;26.98;16.92;;;18.90;99.90;;;;;;5076675;28;20257;-76
2021/08/30 08:59:12;;;;;;;24.13;16.10;;;18.90;99.90;;;;;;5068484;28;20207;-77
2021/08/30 09:01:41;;;;;;;24.13;14.93;;;18.90;99.90;;;;;;5068947;28;20211;-77
2021/08/30 09:04:10;;;;;;;21.33;15.60;;;18.90;99.90;;;;;;5079802;28;20233;-74
2021/08/30 09:06:41;;;;;;;24.08;16.17;;;19.00;99.90;;;;;;5066406;28;20266;-73
2021/08/30 09:09:11;;;;;;;21.10;15.23;;;19.10;99.90;;;;;;5070256;28;20226;-76
2021/08/30 09:11:39;;;;;;;23.40;15.50;;;19.20;99.90;;;;;;5077900;28;20256;-77
2021/08/30 09:14:18;;;;;;;25.25;15.15;;;19.30;99.90;;;;;;5073098;28;20201;-76
2021/08/30 09:16:46;;;;;;;23.67;16.15;;;19.50;99.90;;;;;;5072750;28;20210;-77
2021/08/30 09:19:30;;;;;;;19.23;13.88;;;19.80;99.90;;;;;;5070989;28;20196;-77
2021/08/30 09:22:04;;;;;;;18.20;13.27;;;20.20;99.90;;;;;;5066715;28;20220;-77
2021/08/30 09:24:33;;;;;;;25.02;15.23;;;20.40;99.90;;;;;;5067272;28;20199;-76
2021/08/30 09:27:04;;;;;;;20.48;14.25;;;20.60;99.90;;;;;;5067641;28;20211;-77
2021/08/30 09:29:32;;;;;;;19.85;13.73;;;20.60;99.90;;;;;;5071687;28;20203;-77
2021/08/30 09:32:02;;;;;;;17.70;12.45;;;20.50;99.90;;;;;;5072616;28;20205;-77
2021/08/30 09:34:33;;;;;;;20.67;14.35;;;20.50;99.90;;;;;;5073777;28;20204;-77
2021/08/30 09:37:00;;;;;;;23.25;14.48;;;20.50;99.90;;;;;;5074767;28;20276;-77
2021/08/30 09:50:17;;;;;;;20.70;13.93;;;20.10;99.90;;;;;;5079590;28;20224;-77
2021/08/30 09:52:48;;;;;;;21.88;14.15;;;20.10;99.90;;;;;;5066315;28;20239;-77
2021/08/30 09:55:15;;;;;;;19.17;13.63;;;20.10;99.90;;;;;;5066987;28;20217;-77
2021/08/30 09:57:49;;;;;;;19.27;13.75;;;20.20;99.90;;;;;;5071590;28;20210;-77
2021/08/30 10:00:21;;;;;;;16.98;12.95;;;20.20;99.90;;;;;;5079338;28;20214;-78
2021/08/30 10:05:08;;;;;;;21.02;13.63;;;20.00;99.90;;;;;;5094471;27;20570;-77
2021/08/30 10:07:37;;;;;;;20.00;13.32;;;19.90;99.90;;;;;;5089246;28;20198;-78
2021/08/30 10:12:54;;;;;;;16.77;12.55;;;19.90;99.90;;;;;;5085719;28;20220;-78
2021/08/30 10:18:12;;;;;;;25.90;14.00;;;19.80;99.90;;;;;;5086235;28;20217;-78
2021/08/30 10:28:47;;;;;;;16.75;12.35;;;19.70;99.90;;;;;;5085978;28;20206;-79
2021/08/30 10:36:48;;;;;;;23.58;13.63;;;19.90;99.90;;;;;;5090039;28;20219;-78
2021/08/30 10:42:03;;;;;;;20.92;13.13;;;19.70;99.90;;;;;;5091679;28;20201;-76
2021/08/30 10:44:30;;;;;;;28.55;14.52;;;19.70;99.90;;;;;;5083580;28;20262;-75
2021/08/30 10:47:00;;;;;;;21.13;13.32;;;19.70;99.90;;;;;;5085276;28;20203;-75
2021/08/30 10:49:29;;;;;;;18.55;13.82;;;19.80;99.90;;;;;;5087561;28;20221;-76
2021/08/30 10:52:07;;;;;;;15.10;12.15;;;19.90;99.90;;;;;;5082416;28;20207;-76
2021/08/30 10:54:34;;;;;;;18.60;12.15;;;19.90;99.90;;;;;;5084131;28;20206;-76
2021/08/30 10:57:03;;;;;;;17.65;12.73;;;20.00;99.90;;;;;;5082286;28;20240;-76
2021/08/30 10:59:32;;;;;;;22.00;13.57;;;20.00;99.90;;;;;;5090609;28;20202;-76
2021/08/30 11:02:03;;;;;;;18.77;12.55;;;20.00;99.90;;;;;;5082030;28;20204;-76
2021/08/30 11:04:32;;;;;;;18.65;13.10;;;20.10;99.90;;;;;;5084618;28;20269;-77
2021/08/30 11:06:59;;;;;;;20.30;13.25;;;20.00;99.90;;;;;;5081780;28;20222;-77
2021/08/30 11:09:28;;;;;;;21.23;14.52;;;20.10;99.90;;;;;;5083343;28;20239;-77
2021/08/30 11:12:06;;;;;;;16.05;13.38;;;20.10;99.90;;;;;;5088319;28;20224;-77
2021/08/30 11:14:41;;;;;;;17.17;12.93;;;20.20;99.90;;;;;;5086839;28;20197;-78
2021/08/30 11:17:13;;;;;;;21.40;12.02;;;20.20;99.90;;;;;;5072616;28;20294;-78
2021/08/30 11:19:40;;;;;;;17.27;12.98;;;20.30;99.90;;;;;;5072381;28;20203;-78
2021/08/30 11:22:08;;;;;;;17.95;12.75;;;20.30;99.90;;;;;;5078753;28;20203;-78
2021/08/30 11:24:39;;;;;;;16.20;12.57;;;20.50;99.90;;;;;;5075272;28;20231;-78
2021/08/30 11:27:08;;;;;;;17.20;12.48;;;20.50;99.90;;;;;;5080202;28;20216;-78
2021/08/30 11:29:41;;;;;;;16.10;11.93;;;20.60;99.90;;;;;;5082553;28;20205;-78
2021/08/30 11:40:22;;;;;;;17.20;11.00;;;20.60;99.90;;;;;;5078602;28;20219;-78
2021/08/30 11:45:30;;;;;;;14.88;10.88;;;20.90;99.90;;;;;;5076510;28;20208;-78
2021/08/30 11:47:57;;;;;;;17.23;11.35;;;21.00;99.90;;;;;;5071686;28;20218;-77
2021/08/30 11:50:24;;;;;;;19.08;11.63;;;21.10;99.90;;;;;;5073716;28;20244;-78
2021/08/30 11:52:51;;;;;;;14.93;10.43;;;21.10;99.90;;;;;;5076151;28;20199;-78
2021/08/30 11:55:21;;;;;;;15.70;11.63;;;21.10;99.90;;;;;;5078119;28;20197;-78
2021/08/30 12:00:33;;;;;;;11.18;9.50;;;21.10;99.90;;;;;;5070666;28;20201;-78
2021/08/30 12:05:45;;;;;;;14.77;9.02;;;21.00;99.90;;;;;;5082317;28;20208;-77
2021/08/30 12:08:14;;;;;;;15.82;10.50;;;21.10;99.90;;;;;;5074651;28;20202;-76
2021/08/30 12:10:43;;;;;;;12.57;9.43;;;21.10;99.90;;;;;;5075015;28;20228;-75
2021/08/30 12:16:19;;;;;;;13.85;9.65;;;21.10;99.90;;;;;;5014574;28;20211;-75
2021/08/30 12:18:49;;;;;;;16.73;10.20;;;21.10;99.90;;;;;;5021271;28;20205;-77
2021/08/30 12:21:24;;;;;;;10.65;9.00;;;21.10;99.90;;;;;;5009855;28;20238;-76
2021/08/30 12:23:51;;;;;;;17.17;9.38;;;21.10;99.90;;;;;;5004069;28;20273;-77
2021/08/30 12:26:22;;;;;;;11.27;9.15;;;21.10;99.90;;;;;;5005038;28;20202;-76
2021/08/30 12:28:53;;;;;;;11.90;8.75;;;21.20;99.90;;;;;;5004033;28;20238;-76
2021/08/30 12:31:25;;;;;;;11.43;8.93;;;21.40;99.90;;;;;;5012135;28;20237;-77
2021/08/30 12:34:01;;;;;;;12.45;8.75;;;21.50;99.90;;;;;;5005938;28;20551;-77
2021/08/30 12:41:51;;;;;;;14.15;8.77;;;21.50;99.90;;;;;;5007118;28;20206;-77
2021/08/30 12:49:39;;;;;;;16.33;9.00;;;21.40;99.90;;;;;;5065541;28;20215;-74
2021/08/30 12:52:07;;;;;;;12.02;8.75;;;21.30;99.90;;;;;;5065448;28;20200;-75
2021/08/30 12:54:34;;;;;;;13.05;8.10;;;21.40;99.90;;;;;;5071822;28;20207;-77
2021/08/30 13:02:24;;;;;;;11.88;7.78;;;21.90;99.90;;;;;;5070058;28;20244;-78
2021/08/30 13:04:51;;;;;;;10.77;7.90;;;21.90;99.90;;;;;;5074920;28;20264;-79
2021/08/30 13:07:18;;;;;;;9.75;7.40;;;21.80;99.90;;;;;;5071652;28;20231;-78
2021/08/30 13:12:42;;;;;;;10.50;8.02;;;21.90;99.90;;;;;;5080844;28;20201;-78
2021/08/30 13:17:52;;;;;;;11.57;7.57;;;21.70;99.90;;;;;;5076038;28;20208;-78
2021/08/30 13:20:22;;;;;;;11.20;7.90;;;21.70;99.90;;;;;;5074828;28;20197;-78
2021/08/30 13:22:49;;;;;;;12.48;8.13;;;21.60;99.90;;;;;;5069489;28;20197;-78
2021/08/30 13:25:21;;;;;;;9.10;6.70;;;21.60;99.90;;;;;;5075007;28;20230;-78
2021/08/30 13:27:51;;;;;;;10.40;8.00;;;21.70;99.90;;;;;;5070449;28;20211;-76
2021/08/30 13:30:20;;;;;;;10.18;7.88;;;21.80;99.90;;;;;;5068888;28;20241;-76
2021/08/30 13:32:48;;;;;;;10.32;7.07;;;21.80;99.90;;;;;;5069955;28;20269;-76
2021/08/30 13:35:15;;;;;;;11.35;8.18;;;21.90;99.90;;;;;;5065123;28;20227;-76
2021/08/30 13:37:43;;;;;;;8.43;7.00;;;22.00;99.90;;;;;;5076655;28;20209;-76
2021/08/30 13:40:11;;;;;;;8.43;6.93;;;22.00;99.90;;;;;;5064789;28;20824;-76
2021/08/30 13:42:39;;;;;;;10.95;7.78;;;22.00;99.90;;;;;;5070084;28;20216;-76
2021/08/30 13:45:09;;;;;;;8.35;7.40;;;22.00;99.90;;;;;;5069175;28;20229;-76
2021/08/30 13:47:36;;;;;;;8.18;7.05;;;22.00;99.90;;;;;;5064942;28;20570;-76
2021/08/30 13:50:03;;;;;;;9.75;7.53;;;22.00;99.90;;;;;;5074814;28;20654;-76
2021/08/30 13:52:30;;;;;;;10.00;7.47;;;22.00;99.90;;;;;;5070286;28;20707;-76
2021/08/30 13:54:59;;;;;;;11.23;6.93;;;22.00;99.90;;;;;;5070656;28;20204;-78
2021/08/30 13:57:26;;;;;;;9.70;7.15;;;22.10;99.90;;;;;;5073261;28;20236;-78
2021/08/30 13:59:53;;;;;;;7.28;6.57;;;22.10;99.90;;;;;;5083472;28;20235;-78
2021/08/30 14:05:03;;;;;;;6.03;5.40;;;22.10;99.90;;;;;;5070973;28;20308;-77
2021/08/30 14:07:31;;;;;;;10.38;7.03;;;22.00;99.90;;;;;;5069289;28;20200;-78
2021/08/30 14:09:59;;;;;;;10.93;6.90;;;22.00;99.90;;;;;;5069802;28;20210;-78
2021/08/30 14:12:26;;;;;;;7.47;6.07;;;21.90;99.90;;;;;;5072086;28;20218;-78
2021/08/30 14:15:00;;;;;;;11.05;6.28;;;21.90;99.90;;;;;;5079364;28;20195;-78
2021/08/30 14:20:15;;;;;;;11.32;6.30;;;21.70;99.90;;;;;;5072107;28;20264;-78
2021/08/30 14:22:44;;;;;;;7.47;6.35;;;21.60;99.90;;;;;;5075383;28;20254;-78
2021/08/30 14:25:11;;;;;;;8.50;6.03;;;21.60;99.90;;;;;;5081871;28;20295;-79
2021/08/30 14:27:39;;;;;;;7.93;5.78;;;21.60;99.90;;;;;;5073090;28;20756;-78